METAR AND TAF INFORMATION
METAR FOR PASN
ADDS - METARS form results

(0211 UTC 20 September 2019)
Data provider http://aviationweather.gov/metar/data/
 
METAR text: PASN 200153Z AUTO 03009KT 10SM SCT018 BKN060 BKN075 11/07 A2960 RMK SLP023 T01060067 TSNO VIA AUTODIAL
Conditions at: PASN (ST PAUL ISLAND , AK, US) observed 0153 UTC 20 September 2019
Temperature: 10.6°C (51°F)
Dewpoint: 6.7°C (44°F) [RH = 77%]
Pressure (altimeter): 29.60 inches Hg (1002.5 mb)
[Sea-level pressure: 1002.3 mb]
Winds: from the NNE (30 degrees) at 10 MPH (9 knots; 4.6 m/s)
Visibility: 10 or more miles (16+ km)
Ceiling: 6000 feet AGL
Clouds: scattered clouds at 1800 feet AGL
broken clouds at 6000 feet AGL
broken clouds at 7500 feet AGL
Weather: no significant weather observed at this time

METAR text: PASN 200148Z AUTO 03009KT 10SM SCT018 BKN060 OVC075 11/07 A2960 RMK TSNO VIA AUTODIAL
Conditions at: PASN (ST PAUL ISLAND , AK, US) observed 0148 UTC 20 September 2019
Temperature: 11.0°C (52°F)
Dewpoint: 7.0°C (45°F) [RH = 76%]
Pressure (altimeter): 29.60 inches Hg (1002.5 mb)
Winds: from the NNE (30 degrees) at 10 MPH (9 knots; 4.6 m/s)
Visibility: 10 or more miles (16+ km)
Ceiling: 6000 feet AGL
Clouds: scattered clouds at 1800 feet AGL
broken clouds at 6000 feet AGL
overcast cloud deck at 7500 feet AGL
Weather: no significant weather observed at this time

Forecast for: PASN (ST PAUL ISLAND , AK, US)
Text: PASN 200132Z 2002/2024 03009KT P6SM OVC015
Forecast period: 0200 to 2000 UTC 20 September 2019
Forecast type: FROM: standard forecast or significant change
Winds: from the NNE (30 degrees) at 10 MPH (9 knots; 4.6 m/s)
Visibility: 6 or more miles 10+ km)
Ceiling: 1500 feet AGL
Clouds: overcast cloud deck at 1500 feet AGL
Weather: no significant weather forecast for this period
Text: FM202000 30008KT P6SM BKN035
Forecast period: 2000 UTC 20 September 2019 to 0000 UTC 21 September 2019
Forecast type: FROM: standard forecast or significant change
Winds: from the WNW (300 degrees) at 9 MPH (8 knots; 4.1 m/s)
Visibility: 6 or more miles 10+ km)
Ceiling: 3500 feet AGL
Clouds: broken clouds at 3500 feet AGL
Weather: no significant weather forecast for this period

 AIRPORT MAP

 RUNWAY INFORMATION
Runway 18 Runway length 6500 ft Runway width 150 ft
Runway elevation 63 ft Runway displaced threshold 0 ft Runway heading 190
Runway 36 Runway length 6500 ft Runway width 150 ft
Runway elevation 36 ft Runway displaced threshold 0 ft Runway heading 10

 AIRPORT FREQUENCIES
Type ASOS Name ASOS Frequency 135.75 MHZ
Type CNTR Name ANCHORAGE Frequency 119.1 MHZ
Type CTAF Name CTAF Frequency 122.3 MHZ
Type FSS Name COLD BAY R Frequency 122.45 MHZ
Type MISC Name NWS OBSVR Frequency 122 MHZ

 AIRPORT NEAR NAVIGATION AIDS
Type NDB-DME Name Saint Paul Island Frequency 314 KHZ